Time;durP1;ratioP1;P1;durP2;ratioP2;P2;SDS_P1;SDS_P2;PMS_P1;PMS_P2;Temp;Humidity;BMP_temperature;BMP_pressure;BME280_temperature;BME280_humidity;BME280_pressure;Samples;Min_cycle;Max_cycle;Signal;HPM_P1;HPM_P2
2022/12/31 00:01:52;;;;;;;11.35;2.28;;;13.00;99.90;;;;;;4858994;29;20049;-77
2022/12/31 00:04:18;;;;;;;8.48;2.38;;;13.00;99.90;;;;;;4857280;29;20159;-75
2022/12/31 00:06:44;;;;;;;8.18;2.25;;;13.10;99.90;;;;;;4857102;29;20060;-76
2022/12/31 00:09:10;;;;;;;;;;;13.00;99.90;;;;;;4857667;29;20118;-76
2022/12/31 00:11:36;;;;;;;9.02;2.20;;;13.10;99.90;;;;;;4858459;29;20368;-76
2022/12/31 00:14:02;;;;;;;8.57;2.05;;;13.10;99.90;;;;;;4856230;29;20049;-77
2022/12/31 00:16:31;;;;;;;7.20;1.80;;;13.00;99.90;;;;;;4857211;29;20041;-71
2022/12/31 00:18:59;;;;;;;9.25;2.22;;;13.00;99.90;;;;;;4855703;29;20104;-71
2022/12/31 00:21:26;;;;;;;8.05;2.17;;;13.00;99.90;;;;;;4839056;29;20080;-71
2022/12/31 00:23:52;;;;;;;9.27;2.47;;;13.10;99.90;;;;;;4854187;29;20056;-71
2022/12/31 00:26:23;;;;;;;11.55;3.00;;;13.10;99.90;;;;;;4856112;29;20054;-71
2022/12/31 00:28:50;;;;;;;11.00;2.40;;;13.20;99.90;;;;;;4856913;29;20049;-71
2022/12/31 00:31:22;;;;;;;9.05;2.30;;;13.20;99.90;;;;;;4856234;29;20053;-72
2022/12/31 00:33:47;;;;;;;9.10;2.95;;;13.20;99.90;;;;;;4858598;29;20053;-72
2022/12/31 00:36:20;;;;;;;12.77;2.83;;;13.20;99.90;;;;;;4840119;29;20045;-71
2022/12/31 00:38:47;;;;;;;10.00;3.15;;;13.20;99.90;;;;;;4841462;29;20186;-71
2022/12/31 00:41:14;;;;;;;11.10;2.30;;;13.20;99.90;;;;;;4855085;29;20466;-72
2022/12/31 00:43:41;;;;;;;10.18;2.72;;;13.20;99.90;;;;;;4840468;29;20080;-71
2022/12/31 00:46:07;;;;;;;13.32;2.65;;;13.20;99.90;;;;;;4857562;29;20090;-72
2022/12/31 00:48:34;;;;;;;11.07;3.67;;;13.20;99.90;;;;;;4858312;29;20037;-72
2022/12/31 00:51:01;;;;;;;14.52;3.10;;;13.30;99.90;;;;;;4856609;29;20080;-72
2022/12/31 00:53:27;;;;;;;13.63;3.22;;;13.30;99.90;;;;;;4858593;29;20057;-72
2022/12/31 00:55:58;;;;;;;;;;;13.30;99.90;;;;;;4857936;29;20425;-72
2022/12/31 00:58:24;;;;;;;11.57;3.00;;;13.30;99.90;;;;;;4857049;29;20012;-72
2022/12/31 01:00:49;;;;;;;12.05;3.45;;;13.30;99.90;;;;;;4856391;29;20456;-73
2022/12/31 01:03:15;;;;;;;12.43;2.80;;;13.30;99.90;;;;;;4856752;29;20093;-72
2022/12/31 01:05:40;;;;;;;11.85;3.55;;;13.30;99.90;;;;;;4857064;29;20041;-72
2022/12/31 01:08:06;;;;;;;10.77;2.95;;;13.20;99.90;;;;;;4856786;29;20434;-73
2022/12/31 01:13:16;;;;;;;9.13;2.67;;;13.30;99.90;;;;;;4857406;29;20089;-72
2022/12/31 01:15:42;;;;;;;9.82;2.65;;;13.30;99.90;;;;;;4856141;29;20081;-72
2022/12/31 01:18:08;;;;;;;11.95;2.92;;;13.30;99.90;;;;;;4842307;29;20521;-72
2022/12/31 01:20:39;;;;;;;10.55;2.90;;;13.20;99.90;;;;;;4856051;29;20049;-72
2022/12/31 01:23:06;;;;;;;10.75;2.92;;;13.20;99.90;;;;;;4857476;29;20489;-72
2022/12/31 01:25:36;;;;;;;12.95;3.10;;;13.30;99.90;;;;;;4841080;29;20402;-72
2022/12/31 01:28:03;;;;;;;12.73;2.90;;;13.20;99.90;;;;;;4857516;29;20053;-72
2022/12/31 01:30:29;;;;;;;13.70;2.65;;;13.20;99.90;;;;;;4835857;29;20052;-73
2022/12/31 01:32:55;;;;;;;11.18;2.88;;;13.30;99.90;;;;;;4854542;29;20068;-72
2022/12/31 01:35:20;;;;;;;8.95;2.60;;;13.30;99.90;;;;;;4842415;29;20136;-72
2022/12/31 01:37:46;;;;;;;9.98;2.90;;;13.30;99.90;;;;;;4841636;29;20049;-72
2022/12/31 01:40:12;;;;;;;11.85;3.40;;;13.30;99.90;;;;;;4857364;29;20137;-72
2022/12/31 01:42:38;;;;;;;;;;;13.30;99.90;;;;;;4858247;29;20080;-72
2022/12/31 01:45:10;;;;;;;12.77;2.70;;;13.30;99.90;;;;;;4862900;29;20380;-72
2022/12/31 01:47:45;;;;;;;8.25;2.28;;;13.30;99.90;;;;;;4862498;29;20077;-72
2022/12/31 01:50:25;;;;;;;7.25;2.60;;;13.30;99.90;;;;;;4863586;29;20409;-72
2022/12/31 01:52:56;;;;;;;8.77;2.45;;;13.30;99.90;;;;;;4862708;29;20085;-72
2022/12/31 01:55:29;;;;;;;9.50;2.90;;;13.20;99.90;;;;;;4864008;29;20071;-73
2022/12/31 01:58:10;;;;;;;8.20;2.58;;;13.30;99.90;;;;;;4862611;29;20165;-72
2022/12/31 02:00:36;;;;;;;9.77;2.70;;;13.30;99.90;;;;;;4863606;29;20045;-72
2022/12/31 02:03:05;;;;;;;10.18;2.83;;;13.30;99.90;;;;;;4831725;29;20046;-72
2022/12/31 02:05:42;;;;;;;9.15;2.63;;;13.30;99.90;;;;;;4862414;29;20124;-73
2022/12/31 02:08:09;;;;;;;7.35;2.80;;;13.30;99.90;;;;;;4861528;29;20050;-72
2022/12/31 02:10:34;;;;;;;8.88;2.53;;;13.30;99.90;;;;;;4845968;29;20050;-77
2022/12/31 02:13:01;;;;;;;6.68;2.53;;;13.30;99.90;;;;;;4841777;29;20045;-77
2022/12/31 02:15:37;;;;;;;;;;;13.30;99.90;;;;;;4863775;29;20490;-77
2022/12/31 02:18:18;;;;;;;7.72;2.50;;;13.30;99.90;;;;;;4861086;29;19960;-77
2022/12/31 02:20:58;;;;;;;4.78;2.50;;;13.30;99.90;;;;;;4862124;29;20048;-76
2022/12/31 02:23:56;;;;;;;4.97;2.30;;;13.30;99.90;;;;;;4861700;29;20164;-76
2022/12/31 02:26:44;;;;;;;7.00;3.00;;;13.30;99.90;;;;;;4845872;29;20046;-76
2022/12/31 02:29:35;;;;;;;7.50;3.00;;;13.40;99.90;;;;;;4862721;29;20049;-76
2022/12/31 02:32:36;;;;;;;7.68;2.85;;;13.40;99.90;;;;;;4857175;29;20045;-75
2022/12/31 02:35:06;;;;;;;5.78;2.50;;;13.40;99.90;;;;;;4820888;29;20084;-75
2022/12/31 02:37:34;;;;;;;7.68;2.47;;;13.30;99.90;;;;;;4849692;29;20060;-76
2022/12/31 02:40:00;;;;;;;7.28;2.65;;;13.40;99.90;;;;;;4864261;29;20420;-76
2022/12/31 02:42:26;;;;;;;6.93;2.80;;;13.30;99.90;;;;;;4861294;29;20084;-76
2022/12/31 02:44:51;;;;;;;6.95;2.65;;;13.40;99.90;;;;;;4863063;29;20493;-76
2022/12/31 02:47:43;;;;;;;6.38;2.50;;;13.40;99.90;;;;;;4861494;29;20094;-77
2022/12/31 02:50:21;;;;;;;8.13;2.63;;;13.40;99.90;;;;;;4837377;29;20833;-75
2022/12/31 02:53:16;;;;;;;5.95;2.53;;;13.40;99.90;;;;;;4844350;29;20053;-76
2022/12/31 02:55:53;;;;;;;6.35;2.88;;;13.40;99.90;;;;;;4838308;29;20045;-75
2022/12/31 03:04:32;;;;;;;5.35;1.92;;;13.30;99.90;;;;;;4859405;29;20520;-76
2022/12/31 03:07:06;;;;;;;6.03;2.20;;;13.30;99.90;;;;;;4859779;29;20082;-76
2022/12/31 03:09:34;;;;;;;4.80;1.83;;;13.30;99.90;;;;;;4849536;29;20038;-76
2022/12/31 03:14:45;;;;;;;4.05;1.67;;;13.20;99.90;;;;;;4858954;29;20126;-75
2022/12/31 03:17:11;;;;;;;5.43;1.90;;;13.10;99.90;;;;;;4860808;29;20041;-76
2022/12/31 03:22:27;;;;;;;5.05;1.45;;;13.10;99.90;;;;;;4845752;29;20128;-75
2022/12/31 03:27:58;;;;;;;5.30;1.75;;;13.00;99.90;;;;;;4847580;29;20049;-76
2022/12/31 03:30:24;;;;;;;3.95;1.13;;;13.00;99.90;;;;;;4837691;29;20042;-76
2022/12/31 03:32:51;;;;;;;6.85;1.70;;;13.00;99.90;;;;;;4847962;29;20053;-76
2022/12/31 03:35:19;;;;;;;2.78;1.13;;;12.90;99.90;;;;;;4859579;29;20049;-76
2022/12/31 03:37:45;;;;;;;4.07;1.05;;;12.90;99.90;;;;;;4859210;29;20186;-75
2022/12/31 03:40:12;;;;;;;3.70;1.67;;;12.90;99.90;;;;;;4858281;29;20037;-75
2022/12/31 03:42:38;;;;;;;3.88;1.25;;;12.80;99.90;;;;;;4859062;29;20046;-75
2022/12/31 03:45:05;;;;;;;7.20;1.40;;;12.80;99.90;;;;;;4857645;29;20045;-76
2022/12/31 03:47:30;;;;;;;4.30;1.30;;;12.80;99.90;;;;;;4859965;29;20048;-75
2022/12/31 03:49:56;;;;;;;2.08;0.70;;;12.70;99.90;;;;;;4842767;29;20066;-75
2022/12/31 03:52:22;;;;;;;3.65;1.00;;;12.70;99.90;;;;;;4842475;29;20150;-75
2022/12/31 03:54:47;;;;;;;3.22;0.80;;;12.70;99.90;;;;;;4857868;29;20058;-71
2022/12/31 03:57:13;;;;;;;2.95;0.90;;;12.60;99.90;;;;;;4857359;29;20139;-71
2022/12/31 03:59:39;;;;;;;4.55;0.90;;;12.60;99.90;;;;;;4856490;29;20444;-72
2022/12/31 04:02:05;;;;;;;4.50;1.00;;;12.60;99.90;;;;;;4825061;29;20050;-72
2022/12/31 04:04:30;;;;;;;2.38;0.80;;;12.50;99.90;;;;;;4840876;29;20033;-72
2022/12/31 04:06:56;;;;;;;4.30;0.95;;;12.50;99.90;;;;;;4857178;29;20049;-72
2022/12/31 04:09:22;;;;;;;1.98;0.57;;;12.50;99.90;;;;;;4834746;29;20057;-72
2022/12/31 04:11:48;;;;;;;5.35;1.13;;;12.50;99.90;;;;;;4855840;29;20088;-72
2022/12/31 04:14:15;;;;;;;3.58;1.10;;;12.50;99.90;;;;;;4854978;29;20053;-72
2022/12/31 04:16:40;;;;;;;3.92;0.70;;;12.50;99.90;;;;;;4858799;29;20565;-73
2022/12/31 04:19:06;;;;;;;2.85;0.70;;;12.40;99.90;;;;;;4838574;29;20064;-73
2022/12/31 04:21:32;;;;;;;3.25;0.60;;;12.40;99.90;;;;;;4840383;29;20482;-73
2022/12/31 04:23:58;;;;;;;6.15;1.15;;;12.40;99.90;;;;;;4853503;29;20132;-72
2022/12/31 04:26:23;;;;;;;3.65;0.77;;;12.40;99.90;;;;;;4856792;29;20041;-72
2022/12/31 04:28:49;;;;;;;2.28;0.65;;;12.40;99.90;;;;;;4855740;29;20041;-73
2022/12/31 04:31:15;;;;;;;4.18;0.95;;;12.40;99.90;;;;;;4829419;29;20466;-72
2022/12/31 04:33:40;;;;;;;1.90;0.90;;;12.40;99.90;;;;;;4847850;29;20037;-72
2022/12/31 04:36:07;;;;;;;2.88;0.80;;;12.40;99.90;;;;;;4839660;29;20079;-72
2022/12/31 04:38:33;;;;;;;4.18;1.20;;;12.40;99.90;;;;;;4848796;29;20541;-72
2022/12/31 04:41:17;;;;;;;3.10;1.05;;;12.50;99.90;;;;;;4857031;29;20049;-72
2022/12/31 04:43:51;;;;;;;4.18;1.13;;;12.50;99.90;;;;;;4855216;29;20049;-72
2022/12/31 04:46:21;;;;;;;4.85;1.60;;;12.50;99.90;;;;;;4839726;29;20475;-72
2022/12/31 04:48:46;;;;;;;4.07;1.00;;;12.50;99.90;;;;;;4847934;29;20077;-72
2022/12/31 04:51:13;;;;;;;3.13;1.25;;;12.50;99.90;;;;;;4857092;29;20566;-73
2022/12/31 04:53:39;;;;;;;2.38;1.20;;;12.50;99.90;;;;;;4855354;29;20045;-72
2022/12/31 04:56:07;;;;;;;5.63;1.45;;;12.50;99.90;;;;;;4856491;29;20084;-72
2022/12/31 04:58:33;;;;;;;5.32;1.50;;;12.60;99.90;;;;;;4835804;29;20037;-72
2022/12/31 05:00:59;;;;;;;;;;;12.60;99.90;;;;;;4857386;29;20053;-72
2022/12/31 05:03:25;;;;;;;3.17;1.15;;;12.70;99.90;;;;;;4855809;29;19942;-72
2022/12/31 05:05:52;;;;;;;3.22;1.15;;;12.70;99.90;;;;;;4856721;29;20041;-72
2022/12/31 05:08:18;;;;;;;2.45;1.00;;;12.70;99.90;;;;;;4856705;29;20038;-72
2022/12/31 05:10:47;;;;;;;4.53;1.27;;;12.70;99.90;;;;;;4856195;29;20406;-72
2022/12/31 05:13:13;;;;;;;4.43;1.30;;;12.70;99.90;;;;;;4855713;29;20105;-73
2022/12/31 05:15:39;;;;;;;3.72;0.98;;;12.70;99.90;;;;;;4854690;29;20121;-72
2022/12/31 05:18:05;;;;;;;;;;;12.80;99.90;;;;;;4856410;29;20049;-72
2022/12/31 05:20:31;;;;;;;4.40;1.20;;;12.80;99.90;;;;;;4841923;29;19952;-73
2022/12/31 05:22:57;;;;;;;4.18;1.20;;;12.70;99.90;;;;;;4839251;29;20045;-72
2022/12/31 05:25:22;;;;;;;2.38;1.00;;;12.80;99.90;;;;;;4854800;29;20041;-72
2022/12/31 05:27:48;;;;;;;3.85;0.90;;;12.80;99.90;;;;;;4855342;29;20037;-70
2022/12/31 05:30:14;;;;;;;3.60;1.10;;;12.70;99.90;;;;;;4856350;29;20498;-71
2022/12/31 05:32:40;;;;;;;3.47;1.10;;;12.70;99.90;;;;;;4837530;29;20053;-72
2022/12/31 05:35:06;;;;;;;3.53;1.48;;;12.80;99.90;;;;;;4855466;29;20064;-72
2022/12/31 05:37:32;;;;;;;4.85;1.40;;;12.80;99.90;;;;;;4855685;29;20068;-72
2022/12/31 05:39:58;;;;;;;3.83;1.38;;;12.80;99.90;;;;;;4855758;29;20394;-72
2022/12/31 05:42:25;;;;;;;4.15;1.30;;;12.80;99.90;;;;;;4855569;29;20053;-72
2022/12/31 05:44:50;;;;;;;;;;;12.90;99.90;;;;;;4855713;29;20077;-72
2022/12/31 05:47:16;;;;;;;2.78;1.00;;;12.90;99.90;;;;;;4855831;29;19924;-72
2022/12/31 05:49:42;;;;;;;3.28;0.98;;;12.90;99.90;;;;;;4837158;29;20065;-72
2022/12/31 05:52:08;;;;;;;7.53;1.50;;;13.00;99.90;;;;;;4855709;29;20564;-72
2022/12/31 05:54:35;;;;;;;4.93;1.23;;;12.90;99.90;;;;;;4855919;29;20083;-72
2022/12/31 05:57:01;;;;;;;2.75;0.90;;;12.90;99.90;;;;;;4856322;29;20140;-71
2022/12/31 05:59:27;;;;;;;4.68;1.52;;;13.00;99.90;;;;;;4835500;29;20049;-72
2022/12/31 06:01:53;;;;;;;3.65;1.20;;;13.00;99.90;;;;;;4856305;29;20474;-72
2022/12/31 06:04:19;;;;;;;4.32;1.02;;;13.00;99.90;;;;;;4856277;29;20037;-71
2022/12/31 06:06:45;;;;;;;3.10;1.10;;;13.00;99.90;;;;;;4856286;29;20434;-72
2022/12/31 06:09:10;;;;;;;2.83;1.10;;;13.00;99.90;;;;;;4855330;29;20135;-72
2022/12/31 06:11:36;;;;;;;3.28;1.13;;;13.00;99.90;;;;;;4853744;29;20500;-71
2022/12/31 06:14:02;;;;;;;2.85;1.10;;;12.90;99.90;;;;;;4855809;29;20173;-71
2022/12/31 06:16:28;;;;;;;5.22;1.52;;;12.90;99.90;;;;;;4855953;29;20049;-71
2022/12/31 06:18:53;;;;;;;5.57;1.45;;;12.90;99.90;;;;;;4854805;29;20056;-72
2022/12/31 06:21:20;;;;;;;4.00;1.00;;;12.90;99.90;;;;;;4855122;29;20037;-71
2022/12/31 06:23:47;;;;;;;2.47;1.08;;;12.80;99.90;;;;;;4854472;29;20052;-71
2022/12/31 06:26:13;;;;;;;2.80;1.00;;;12.80;99.90;;;;;;4855083;29;20060;-71
2022/12/31 06:28:39;;;;;;;2.97;0.60;;;12.70;99.90;;;;;;4854068;29;20041;-71
2022/12/31 06:31:09;;;;;;;3.22;0.70;;;12.70;99.90;;;;;;4857345;29;20451;-71
2022/12/31 06:33:35;;;;;;;2.83;0.60;;;12.60;99.90;;;;;;4841725;29;20045;-71
2022/12/31 06:36:04;;;;;;;2.10;0.70;;;12.50;99.90;;;;;;4857863;29;20049;-71
2022/12/31 06:38:31;;;;;;;3.75;0.55;;;12.40;99.90;;;;;;4857767;29;20049;-71
2022/12/31 06:40:56;;;;;;;1.52;0.55;;;12.30;99.90;;;;;;4858802;29;20068;-75
2022/12/31 06:43:22;;;;;;;2.45;0.40;;;12.20;99.90;;;;;;4861169;29;20041;-75
2022/12/31 06:45:48;;;;;;;2.33;0.60;;;12.30;99.90;;;;;;4860914;29;20049;-76
2022/12/31 06:48:14;;;;;;;2.03;0.50;;;12.20;99.90;;;;;;4858532;29;20064;-75
2022/12/31 06:50:39;;;;;;;1.23;0.30;;;12.20;99.90;;;;;;4859130;29;20061;-75
2022/12/31 06:53:06;;;;;;;3.13;0.50;;;12.30;99.90;;;;;;4859781;29;20052;-76
2022/12/31 06:55:32;;;;;;;1.77;0.52;;;12.30;99.90;;;;;;4859924;29;20037;-76
2022/12/31 06:57:58;;;;;;;;;;;12.30;99.90;;;;;;4859924;29;20128;-76
2022/12/31 07:00:24;;;;;;;1.38;0.30;;;12.30;99.90;;;;;;4858518;29;20010;-75
2022/12/31 07:02:58;;;;;;;1.40;0.60;;;12.40;99.90;;;;;;4857966;29;20042;-75
2022/12/31 07:05:38;;;;;;;1.30;0.80;;;12.40;99.90;;;;;;4844875;29;20415;-76
2022/12/31 07:08:24;;;;;;;1.70;0.90;;;12.50;99.90;;;;;;4855255;29;20046;-76
2022/12/31 07:10:58;;;;;;;1.33;0.80;;;12.70;99.90;;;;;;4859167;29;20055;-76
2022/12/31 07:13:43;;;;;;;1.63;1.30;;;12.60;99.90;;;;;;4855244;29;20038;-75
2022/12/31 07:16:25;;;;;;;1.92;1.55;;;12.80;99.90;;;;;;4855488;29;20580;-76
2022/12/31 07:18:58;;;;;;;2.55;1.70;;;12.90;99.90;;;;;;4858823;29;20045;-76
2022/12/31 07:21:36;;;;;;;2.78;1.60;;;13.10;99.90;;;;;;4858730;29;20060;-75
2022/12/31 07:24:04;;;;;;;2.90;1.52;;;13.30;99.90;;;;;;4852309;29;20096;-76
2022/12/31 07:26:50;;;;;;;2.45;1.55;;;13.10;99.90;;;;;;4859638;29;20124;-76
2022/12/31 07:29:53;;;;;;;2.45;1.35;;;13.30;99.90;;;;;;4837213;29;20041;-76
2022/12/31 07:32:31;;;;;;;2.28;1.40;;;13.30;99.90;;;;;;4851293;29;20150;-75
2022/12/31 07:35:25;;;;;;;1.90;1.20;;;13.30;99.90;;;;;;4855059;29;20077;-76
2022/12/31 07:37:51;;;;;;;1.48;1.05;;;13.20;99.90;;;;;;4857938;29;20064;-74
2022/12/31 07:40:25;;;;;;;2.55;1.30;;;13.50;99.90;;;;;;4854733;29;20061;-74
2022/12/31 07:43:16;;;;;;;1.58;0.98;;;13.20;99.90;;;;;;4849116;29;20072;-77
2022/12/31 07:45:51;;;;;;;2.50;0.90;;;13.20;99.90;;;;;;4854862;29;20046;-77
2022/12/31 07:48:35;;;;;;;3.92;1.20;;;13.20;99.90;;;;;;4855149;29;20045;-77
2022/12/31 07:51:01;;;;;;;1.20;0.90;;;13.30;99.90;;;;;;4831690;29;20070;-77
2022/12/31 07:53:27;;;;;;;1.02;0.77;;;13.30;99.90;;;;;;4854554;29;20086;-77
2022/12/31 07:55:57;;;;;;;1.95;0.93;;;13.50;99.90;;;;;;4856283;29;20061;-77
2022/12/31 07:58:50;;;;;;;2.35;1.10;;;13.50;99.90;;;;;;4858640;29;20063;-77
2022/12/31 08:01:29;;;;;;;2.13;1.25;;;13.60;99.90;;;;;;4834693;29;20057;-77
2022/12/31 08:04:17;;;;;;;1.08;0.90;;;13.20;99.90;;;;;;4856145;29;20046;-77
2022/12/31 08:06:55;;;;;;;1.90;1.08;;;13.70;99.90;;;;;;4856989;29;20055;-77
2022/12/31 08:09:33;;;;;;;1.20;1.00;;;13.60;99.90;;;;;;4843462;29;20093;-77
2022/12/31 08:12:00;;;;;;;1.80;1.17;;;13.30;99.90;;;;;;4857014;29;20106;-77
2022/12/31 08:14:27;;;;;;;1.30;1.10;;;13.30;99.90;;;;;;4859817;29;20029;-77
2022/12/31 08:16:54;;;;;;;1.75;1.13;;;13.40;99.90;;;;;;4857688;29;20034;-78
2022/12/31 08:19:28;;;;;;;1.00;0.90;;;13.40;99.90;;;;;;4843811;29;20045;-77
2022/12/31 08:21:57;;;;;;;1.40;1.00;;;13.90;99.90;;;;;;4854918;29;20113;-77
2022/12/31 08:24:50;;;;;;;1.33;1.08;;;13.50;99.90;;;;;;4857497;29;20050;-77
2022/12/31 08:27:31;;;;;;;1.35;1.08;;;13.50;99.90;;;;;;4856049;29;20049;-77
2022/12/31 08:30:16;;;;;;;0.90;0.85;;;13.90;99.90;;;;;;4858112;29;20078;-77
2022/12/31 08:33:03;;;;;;;1.60;1.00;;;13.90;99.90;;;;;;4847524;29;20802;-77
2022/12/31 08:35:55;;;;;;;2.22;1.00;;;13.90;99.90;;;;;;4853521;29;20052;-76
2022/12/31 08:38:27;;;;;;;1.00;0.63;;;14.10;99.90;;;;;;4857377;29;20136;-77
2022/12/31 08:41:15;;;;;;;0.50;0.50;;;14.20;99.90;;;;;;4850495;29;20053;-77
2022/12/31 08:43:48;;;;;;;0.40;0.40;;;14.30;99.90;;;;;;4853794;29;20046;-76
2022/12/31 08:46:28;;;;;;;0.60;0.47;;;13.80;99.90;;;;;;4857790;29;20045;-77
2022/12/31 08:48:54;;;;;;;0.55;0.50;;;14.20;99.90;;;;;;4858083;29;20397;-76
2022/12/31 08:51:22;;;;;;;0.93;0.60;;;14.40;99.90;;;;;;4856821;29;20061;-77
2022/12/31 08:53:48;;;;;;;0.80;0.70;;;14.10;99.90;;;;;;4857028;29;20402;-76
2022/12/31 08:56:33;;;;;;;0.90;0.70;;;14.30;99.90;;;;;;4856871;29;20358;-77
2022/12/31 08:59:17;;;;;;;0.70;0.70;;;14.30;99.90;;;;;;4857499;29;20060;-77
2022/12/31 09:01:51;;;;;;;1.17;1.08;;;14.30;99.90;;;;;;4855941;29;20037;-78
2022/12/31 09:04:37;;;;;;;1.00;0.90;;;14.40;99.90;;;;;;4837073;29;20049;-76
2022/12/31 09:07:03;;;;;;;1.63;1.40;;;14.70;99.90;;;;;;4837794;29;20061;-76
2022/12/31 09:09:48;;;;;;;1.20;1.10;;;15.30;99.90;;;;;;4851676;29;20049;-76
2022/12/31 09:12:39;;;;;;;1.38;1.27;;;14.80;99.90;;;;;;4853279;29;20045;-77
2022/12/31 09:15:14;;;;;;;1.92;1.50;;;14.90;99.90;;;;;;4855601;29;20060;-76
2022/12/31 09:17:46;;;;;;;1.40;1.30;;;15.50;99.90;;;;;;4838637;29;20124;-77
2022/12/31 09:20:18;;;;;;;1.98;1.80;;;15.30;99.90;;;;;;4843161;29;20073;-76
2022/12/31 09:22:44;;;;;;;5.30;1.80;;;15.50;99.90;;;;;;4856646;29;20084;-77
2022/12/31 09:25:14;;;;;;;2.60;1.60;;;15.70;99.90;;;;;;4856488;29;20069;-76
2022/12/31 09:28:14;;;;;;;3.55;1.73;;;15.70;99.90;;;;;;4855674;29;20041;-77
2022/12/31 09:30:40;;;;;;;2.17;1.55;;;15.40;99.90;;;;;;4820621;29;20064;-77
2022/12/31 09:33:19;;;;;;;3.08;1.30;;;15.50;99.90;;;;;;4852588;29;20049;-77
2022/12/31 09:35:45;;;;;;;2.65;1.27;;;15.90;99.90;;;;;;4854952;29;20045;-77
2022/12/31 09:38:29;;;;;;;3.15;1.17;;;15.60;99.90;;;;;;4853903;29;20097;-77
2022/12/31 09:41:36;;;;;;;2.63;1.05;;;15.90;99.90;;;;;;4838366;29;20053;-77
2022/12/31 09:44:50;;;;;;;2.05;1.02;;;15.80;99.90;;;;;;4852557;29;20049;-77
2022/12/31 09:47:27;;;;;;;1.90;0.90;;;15.70;99.90;;;;;;4836424;29;20042;-77
2022/12/31 09:50:14;;;;;;;1.50;0.90;;;16.00;99.90;;;;;;4863729;29;20476;-77
2022/12/31 09:52:52;;;;;;;3.70;1.30;;;16.10;99.90;;;;;;4854077;29;20455;-77
2022/12/31 09:55:37;;;;;;;2.10;0.85;;;16.00;99.90;;;;;;4868102;29;20053;-77
2022/12/31 09:58:33;;;;;;;1.77;1.10;;;16.00;99.90;;;;;;4854215;29;20049;-77
2022/12/31 10:00:58;;;;;;;2.78;1.35;;;15.90;99.90;;;;;;4852883;29;20053;-77
2022/12/31 10:03:32;;;;;;;2.17;1.23;;;15.90;99.90;;;;;;4838513;29;20038;-77
2022/12/31 10:06:15;;;;;;;1.90;0.82;;;15.80;99.90;;;;;;4843225;29;20087;-77
2022/12/31 10:09:22;;;;;;;2.15;0.80;;;15.90;99.90;;;;;;4857439;29;20049;-77
2022/12/31 10:12:03;;;;;;;2.90;1.30;;;15.70;99.90;;;;;;4833035;29;20056;-78
2022/12/31 10:14:47;;;;;;;2.90;0.93;;;15.90;99.90;;;;;;4840876;29;20057;-70
2022/12/31 10:17:47;;;;;;;3.22;0.85;;;15.70;99.90;;;;;;4859433;29;20049;-70
2022/12/31 10:20:38;;;;;;;5.55;1.08;;;15.70;99.90;;;;;;4857948;29;20090;-70
2022/12/31 10:23:13;;;;;;;5.75;1.00;;;15.70;99.90;;;;;;4858927;29;20141;-71
2022/12/31 10:26:06;;;;;;;4.10;0.80;;;15.60;99.90;;;;;;4860253;29;20045;-71
2022/12/31 10:29:09;;;;;;;3.70;1.20;;;15.50;99.90;;;;;;4856441;29;20052;-72
2022/12/31 10:31:44;;;;;;;3.75;1.02;;;15.30;99.90;;;;;;4855615;29;20402;-71
2022/12/31 10:34:25;;;;;;;7.25;1.10;;;15.20;99.90;;;;;;4856540;29;20045;-71
2022/12/31 10:37:02;;;;;;;2.60;0.75;;;15.10;99.90;;;;;;4840537;29;20403;-70
2022/12/31 10:39:54;;;;;;;5.13;1.33;;;15.00;99.90;;;;;;4858009;29;20060;-71
2022/12/31 10:42:47;;;;;;;4.50;1.00;;;14.90;99.90;;;;;;4858982;29;20086;-71
2022/12/31 10:45:35;;;;;;;6.10;1.17;;;14.90;99.90;;;;;;4840514;29;20057;-71
2022/12/31 10:48:22;;;;;;;5.57;1.42;;;14.80;99.90;;;;;;4855471;29;20038;-71
2022/12/31 10:51:23;;;;;;;6.93;1.30;;;14.80;99.90;;;;;;4855699;29;20134;-71
2022/12/31 10:54:31;;;;;;;7.70;1.50;;;14.70;99.90;;;;;;4857535;29;20058;-71
2022/12/31 10:57:05;;;;;;;4.90;1.30;;;14.60;99.90;;;;;;4847051;29;20100;-72
2022/12/31 10:59:43;;;;;;;5.30;1.17;;;14.60;99.90;;;;;;4873105;29;20049;-71
2022/12/31 11:02:39;;;;;;;7.68;1.40;;;14.50;99.90;;;;;;4856372;29;20072;-71
2022/12/31 11:05:42;;;;;;;6.78;1.60;;;14.50;99.90;;;;;;4841202;29;20077;-77
2022/12/31 11:08:16;;;;;;;4.30;1.42;;;14.50;99.90;;;;;;4853933;29;20049;-70
2022/12/31 11:10:51;;;;;;;7.43;1.50;;;14.50;99.90;;;;;;4858499;29;20041;-69
2022/12/31 11:13:38;;;;;;;7.63;1.45;;;14.40;99.90;;;;;;4857966;29;20091;-69
2022/12/31 11:16:32;;;;;;;7.05;1.27;;;14.40;99.90;;;;;;4857481;29;20498;-69
2022/12/31 11:19:26;;;;;;;6.60;1.40;;;14.40;99.90;;;;;;4858636;29;20060;-70
2022/12/31 11:22:07;;;;;;;5.78;1.55;;;14.40;99.90;;;;;;4858873;29;20097;-69
2022/12/31 11:25:12;;;;;;;11.52;1.70;;;14.40;99.90;;;;;;4841557;29;20447;-69
2022/12/31 11:27:51;;;;;;;9.95;1.70;;;14.50;99.90;;;;;;4859034;29;20053;-69
2022/12/31 11:30:32;;;;;;;8.90;1.70;;;14.50;99.90;;;;;;4857419;29;20052;-69
2022/12/31 11:33:20;;;;;;;12.00;2.03;;;14.50;99.90;;;;;;4859095;29;20109;-68
2022/12/31 11:35:55;;;;;;;11.40;1.90;;;14.60;99.90;;;;;;4857308;29;20045;-69
2022/12/31 11:38:29;;;;;;;7.57;1.48;;;14.60;99.90;;;;;;4857397;29;20081;-70
2022/12/31 11:41:00;;;;;;;5.53;1.52;;;14.60;99.90;;;;;;4858092;29;20052;-70
2022/12/31 11:43:38;;;;;;;8.50;1.80;;;14.60;99.90;;;;;;4858968;29;20041;-70
2022/12/31 11:46:37;;;;;;;9.02;1.65;;;14.60;99.90;;;;;;4857814;29;20490;-70
2022/12/31 11:49:18;;;;;;;7.07;1.63;;;14.60;99.90;;;;;;4856048;29;20048;-71
2022/12/31 11:52:06;;;;;;;9.45;1.55;;;14.60;99.90;;;;;;4859163;29;20414;-71
2022/12/31 11:54:55;;;;;;;7.13;1.35;;;14.60;99.90;;;;;;4826030;29;20046;-71
2022/12/31 11:57:36;;;;;;;7.93;1.95;;;14.60;99.90;;;;;;4837505;29;20041;-71
2022/12/31 12:00:19;;;;;;;5.93;1.75;;;14.60;99.90;;;;;;4856527;29;20054;-71
2022/12/31 12:03:02;;;;;;;9.30;2.30;;;14.70;99.90;;;;;;4858892;29;20046;-71
2022/12/31 12:05:28;;;;;;;7.00;1.60;;;14.80;99.90;;;;;;4857968;29;20383;-71
2022/12/31 12:07:54;;;;;;;;;;;14.80;99.90;;;;;;4858058;29;20143;-71
2022/12/31 12:10:27;;;;;;;3.58;1.10;;;14.80;99.90;;;;;;4834585;29;19969;-71
2022/12/31 12:12:54;;;;;;;5.05;1.20;;;14.80;99.90;;;;;;4848710;29;20506;-71
2022/12/31 12:15:34;;;;;;;4.70;1.20;;;14.80;99.90;;;;;;4856514;29;20097;-71
2022/12/31 12:18:08;;;;;;;6.40;1.65;;;14.80;99.90;;;;;;4858030;29;20053;-71
2022/12/31 12:20:37;;;;;;;4.93;1.30;;;14.80;99.90;;;;;;4842132;29;20132;-71
2022/12/31 12:23:19;;;;;;;6.43;1.60;;;14.80;99.90;;;;;;4842886;29;20192;-70
2022/12/31 12:25:45;;;;;;;7.53;1.80;;;14.90;99.90;;;;;;4856435;29;20045;-71
2022/12/31 12:28:25;;;;;;;8.98;2.47;;;14.90;99.90;;;;;;4858097;29;20052;-70
2022/12/31 12:30:56;;;;;;;7.82;1.90;;;14.90;99.90;;;;;;4857309;29;20053;-71
2022/12/31 12:33:23;;;;;;;8.65;2.60;;;14.90;99.90;;;;;;4856984;29;20053;-71
2022/12/31 12:35:49;;;;;;;7.97;1.92;;;14.90;99.90;;;;;;4840835;29;20041;-71
2022/12/31 12:38:22;;;;;;;8.43;1.92;;;14.90;99.90;;;;;;4857180;29;20447;-71
2022/12/31 12:40:59;;;;;;;8.73;2.03;;;14.80;99.90;;;;;;4856257;29;20054;-71
2022/12/31 12:43:31;;;;;;;6.85;1.80;;;14.90;99.90;;;;;;4855735;29;20107;-71
2022/12/31 12:46:06;;;;;;;6.93;2.40;;;14.90;99.90;;;;;;4833912;29;20513;-71
2022/12/31 12:48:44;;;;;;;10.27;3.40;;;14.90;99.90;;;;;;4856862;29;20049;-72
2022/12/31 12:51:25;;;;;;;9.52;4.63;;;14.90;99.90;;;;;;4856920;29;20077;-71
2022/12/31 12:54:09;;;;;;;35.25;24.05;;;14.90;99.90;;;;;;4857797;29;20060;-72
2022/12/31 12:56:44;;;;;;;12.43;5.10;;;14.90;99.90;;;;;;4840196;29;20049;-71
2022/12/31 12:59:32;;;;;;;8.88;2.45;;;14.80;99.90;;;;;;4857761;29;20085;-71
2022/12/31 13:02:15;;;;;;;8.93;3.47;;;14.80;99.90;;;;;;4856061;29;20489;-71
2022/12/31 13:05:18;;;;;;;8.20;2.17;;;14.90;99.90;;;;;;4842544;29;20088;-71
2022/12/31 13:07:47;;;;;;;10.35;1.85;;;14.90;99.90;;;;;;4856349;29;20140;-72
2022/12/31 13:10:41;;;;;;;10.50;2.33;;;14.90;99.90;;;;;;4855179;29;20049;-70
2022/12/31 13:13:44;;;;;;;6.43;1.77;;;14.80;99.90;;;;;;4853984;29;20327;-70
2022/12/31 13:16:45;;;;;;;9.38;2.10;;;14.70;99.90;;;;;;4844391;29;20053;-70
2022/12/31 13:19:20;;;;;;;8.10;2.60;;;14.70;99.90;;;;;;4853282;29;20051;-70
2022/12/31 13:22:03;;;;;;;9.40;2.30;;;14.60;99.90;;;;;;4843688;29;20041;-71
2022/12/31 13:24:47;;;;;;;6.45;1.70;;;14.60;99.90;;;;;;4841473;29;20061;-71
2022/12/31 13:27:16;;;;;;;5.20;1.30;;;14.50;99.90;;;;;;4855319;29;20041;-70
2022/12/31 13:29:44;;;;;;;8.20;2.00;;;14.50;99.90;;;;;;4853968;29;20060;-72
2022/12/31 13:32:18;;;;;;;7.25;2.00;;;14.40;99.90;;;;;;4853503;29;20064;-70
2022/12/31 13:34:48;;;;;;;7.47;1.52;;;14.40;99.90;;;;;;4853612;29;20060;-69
2022/12/31 13:37:21;;;;;;;7.32;1.52;;;14.40;99.90;;;;;;4847320;29;20053;-70
2022/12/31 13:39:52;;;;;;;8.02;1.60;;;14.30;99.90;;;;;;4871806;29;20037;-70
2022/12/31 13:42:24;;;;;;;6.10;1.92;;;14.20;99.90;;;;;;4842139;29;20052;-71